Airfield :
LOGIN :

Register | Disclaimer

   EN    FR    IT 

 










Legend :    VFR   Marginal VFR   IFR   Intensive IFR   Very Intensive IFR
Visi :
Ceiling :
>= 8 km
>= 3000ft
5 to 8 km
1000 to 3000 ft
1500m to 5 km
500 to 1000 ft
800 to 1500m
200 to 500 ft
< 800m
< 200 ft
Symbols :   Thunderstorms  Fog  Heavy snow  Heavy precipitations  Wind > 20 kt
SIGMETs :     Misc.  Thunderstorms  Icing  Turbulence  Mountain Waves  Volcanic Ashes






- Airport Elevation : 137 ft
- IATA code : ARN


ESSA - Stockholm-Arlanda

CURRENT METAR :
  • 201920Z 07007KT 7000 BKN015 05/05 Q1028 R01L/19//95 R08/19//95 R01R/19//95 BECMG 13010KT 9999 NSW

EXPIRED METARs :
  • 201850Z 07006KT 6000 BKN017 05/04 Q1028 R01L/19//95 R08/19//95 R01R/19//95 BECMG 13010KT 9999 NSW
  • 201820Z 06006KT 1000 R01L/P1500N R19R/P1500N R01R/P1500N R19L/P1500N BKN016 04/04 Q1028 R01L/19//95 R08/19//95 R01R/19//95 BECMG 7000 14010KT
  • 201750Z 07006KT 0700 R01L/P1500N R19R/P1500N R01R/P1500N R19L/P1500N BCFG BKN017 04/04 Q1028 R01L/19//95 R08/19//95 R01R/19//95 BECMG 9999 BKN015
  • 201720Z 06006KT 0300 R01L/0600N R19R/P1500N R01R/1300N R19L/0750N FG VV002 04/04 Q1028 R01L/19//95 R08/19//95 R01R/19//95 TEMPO 1200 BR

TAF TAF ESSA
Valid from the 20 at 18:00 until the 21 at 18:00 UTC


201730Z 2018/2118 08006KT 7000 BKN015
BECMG 2018/2020 14010KT
PROB40 2018/2021 0200 BCFG BKN003
TEMPO 2021/2106 BKN006
PROB40 2106/2118 BKN010



MET'MAP, your aeronautical weather chart ! - Copyright ORBIFLY December 2007 - Disclaimer

ORBIFLY MET'MAP TEAM :

Programming & Development : Alexandra Zaïnal
Concept & Development : Baudouin d'Aumeries
Co-Development & Prog : Marc-Olivier Méhu
Technical & hardware support : Manuel Goepfert

Contact : metmap@orbifly.com




SOURCES & CREDITS :

   NOAA